首页
METAR-TAF:

METAR-TAF

机场 :

布拉格瓦茨拉夫·哈維爾國際機場

布拉格, 捷克共和国

纬度: 50-06N, 经度: 014-15E, 海拔: 365米

当前天气观测

该预报发布于15分钟前的08:30 UTC
风速9节,风向西
温度 20°C
湿度 73%
气压 1013 hPa
能见度10公里或以上
多云层高于2000英尺

METAR: LKPR 140830Z 26009KT 9999 BKN020 20/15 Q1013 NOSIG

时间: 10:45 (08:45 UTC)

预报

该预报发布于3小时和45分钟前的05:00 UTC
预报有效从14日的 06点(UTC)到 15日的 12点(UTC)
风速12节,风向西
能见度10公里或以上
1500米以下无云,无积雨云
短暂存在
从 14日的 11点(UTC)到 14日的 18点(UTC)
风速12节,风向西北,有时为26节阵风
能見度: 8000
散云层高于4000英尺, 塔状积云.
阵雨
成为
从 15日的 08点(UTC)到 15日的 10点(UTC)
风速10节,风向

TAF: LKPR 140500Z 1406/1512 27012KT CAVOK TEMPO 1411/1418 31012G26KT 8000 SHRA SCT040TCU BECMG 1508/1510 35010KT

超过4000个机场的气象观测和天气预报(METAR&TAF报告)。

可查询的气象台以黄色和红色小点在地图上表示。

将鼠标移到小点上方,可查看气象台名称。

然后点击查看天气观测和预报。

如需切换地图:点击带黑十字的绿色按钮放大地图;点击带横线的绿色按钮缩小地图;或者点击绿色箭头查看邻近地区的地图。


METAR-TAF: